sensor_id;sensor_type;location;lat;lon;timestamp;pressure;altitude;pressure_sealevel;temperature;humidity
20612;BME280;10465;42.686;23.364;2023-12-04T00:01:35;95467.06;;;2.97;62.10
20612;BME280;10465;42.686;23.364;2023-12-04T00:04:01;95480.88;;;2.93;61.54
20612;BME280;10465;42.686;23.364;2023-12-04T00:06:26;95486.41;;;2.96;61.31
20612;BME280;10465;42.686;23.364;2023-12-04T00:08:52;95479.81;;;2.94;60.50
20612;BME280;10465;42.686;23.364;2023-12-04T00:11:17;95487.94;;;2.92;60.25
20612;BME280;10465;42.686;23.364;2023-12-04T00:13:43;95472.44;;;2.69;60.99
20612;BME280;10465;42.686;23.364;2023-12-04T00:16:08;95493.88;;;2.88;60.88
20612;BME280;10465;42.686;23.364;2023-12-04T00:18:34;95493.56;;;2.84;60.59
20612;BME280;10465;42.686;23.364;2023-12-04T00:20:59;95470.66;;;2.75;60.05
20612;BME280;10465;42.686;23.364;2023-12-04T00:23:25;95492.38;;;2.92;60.37
20612;BME280;10465;42.686;23.364;2023-12-04T00:25:50;95503.44;;;2.99;60.32
20612;BME280;10465;42.686;23.364;2023-12-04T00:28:16;95509.75;;;3.03;60.44
20612;BME280;10465;42.686;23.364;2023-12-04T00:30:41;95512.63;;;3.02;60.30
20612;BME280;10465;42.686;23.364;2023-12-04T00:33:07;95508.69;;;2.82;60.29
20612;BME280;10465;42.686;23.364;2023-12-04T00:35:32;95532.38;;;2.92;60.57
20612;BME280;10465;42.686;23.364;2023-12-04T00:37:58;95520.41;;;2.96;59.96
20612;BME280;10465;42.686;23.364;2023-12-04T00:40:23;95513.66;;;3.01;60.23
20612;BME280;10465;42.686;23.364;2023-12-04T00:42:49;95514.19;;;3.03;59.44
20612;BME280;10465;42.686;23.364;2023-12-04T00:45:14;95529.91;;;3.03;58.99
20612;BME280;10465;42.686;23.364;2023-12-04T00:47:39;95489.22;;;2.73;59.28
20612;BME280;10465;42.686;23.364;2023-12-04T00:50:05;95524.66;;;3.03;59.09
20612;BME280;10465;42.686;23.364;2023-12-04T00:52:31;95495.63;;;2.82;59.60
20612;BME280;10465;42.686;23.364;2023-12-04T00:54:56;95507.25;;;2.91;59.71
20612;BME280;10465;42.686;23.364;2023-12-04T00:57:21;95534.34;;;3.02;59.89
20612;BME280;10465;42.686;23.364;2023-12-04T00:59:47;95539.03;;;3.00;59.91
20612;BME280;10465;42.686;23.364;2023-12-04T01:02:12;95514.81;;;2.88;60.29
20612;BME280;10465;42.686;23.364;2023-12-04T01:04:40;95539.63;;;3.07;60.29
20612;BME280;10465;42.686;23.364;2023-12-04T01:07:07;95537.75;;;3.03;59.77
20612;BME280;10465;42.686;23.364;2023-12-04T01:09:35;95543.28;;;3.06;59.98
20612;BME280;10465;42.686;23.364;2023-12-04T01:12:00;95518.34;;;2.82;60.13
20612;BME280;10465;42.686;23.364;2023-12-04T01:14:26;95543.22;;;3.01;59.90
20612;BME280;10465;42.686;23.364;2023-12-04T01:16:51;95547.47;;;3.07;60.16
20612;BME280;10465;42.686;23.364;2023-12-04T01:19:17;95548.94;;;2.98;59.80
20612;BME280;10465;42.686;23.364;2023-12-04T01:21:42;95556.13;;;2.91;60.23
20612;BME280;10465;42.686;23.364;2023-12-04T01:24:08;95547.59;;;2.79;60.66
20612;BME280;10465;42.686;23.364;2023-12-04T01:26:33;95547.38;;;2.80;61.20
20612;BME280;10465;42.686;23.364;2023-12-04T01:28:59;95544.19;;;2.78;60.95
20612;BME280;10465;42.686;23.364;2023-12-04T01:31:24;95540.72;;;2.72;60.83
20612;BME280;10465;42.686;23.364;2023-12-04T01:33:50;95543.09;;;2.74;60.73
20612;BME280;10465;42.686;23.364;2023-12-04T01:36:15;95551.31;;;2.66;60.34
20612;BME280;10465;42.686;23.364;2023-12-04T01:38:41;95552.09;;;2.66;60.89
20612;BME280;10465;42.686;23.364;2023-12-04T01:41:06;95549.09;;;2.75;61.36
20612;BME280;10465;42.686;23.364;2023-12-04T01:43:32;95543.66;;;2.76;61.00
20612;BME280;10465;42.686;23.364;2023-12-04T01:45:59;95555.94;;;2.76;60.96
20612;BME280;10465;42.686;23.364;2023-12-04T01:48:25;95559.16;;;2.83;61.12
20612;BME280;10465;42.686;23.364;2023-12-04T01:50:52;95557.84;;;2.63;61.01
20612;BME280;10465;42.686;23.364;2023-12-04T01:53:18;95546.16;;;2.71;60.71
20612;BME280;10465;42.686;23.364;2023-12-04T01:55:44;95529.44;;;2.55;61.10
20612;BME280;10465;42.686;23.364;2023-12-04T01:58:11;95551.09;;;2.67;60.85
20612;BME280;10465;42.686;23.364;2023-12-04T02:00:37;95560.06;;;2.71;61.17
20612;BME280;10465;42.686;23.364;2023-12-04T02:03:02;95565.44;;;2.65;60.90
20612;BME280;10465;42.686;23.364;2023-12-04T02:05:29;95557.97;;;2.57;60.84
20612;BME280;10465;42.686;23.364;2023-12-04T02:07:54;95546.09;;;2.49;60.91
20612;BME280;10465;42.686;23.364;2023-12-04T02:10:21;95547.53;;;2.57;61.42
20612;BME280;10465;42.686;23.364;2023-12-04T02:12:47;95554.34;;;2.58;60.95
20612;BME280;10465;42.686;23.364;2023-12-04T02:15:13;95562.69;;;2.43;60.84
20612;BME280;10465;42.686;23.364;2023-12-04T02:17:39;95570.34;;;2.61;61.03
20612;BME280;10465;42.686;23.364;2023-12-04T02:20:05;95572.38;;;2.59;61.43
20612;BME280;10465;42.686;23.364;2023-12-04T02:22:31;95571.69;;;2.64;61.17
20612;BME280;10465;42.686;23.364;2023-12-04T02:24:56;95562.16;;;2.58;60.73
20612;BME280;10465;42.686;23.364;2023-12-04T02:27:47;95583.09;;;2.75;60.85
20612;BME280;10465;42.686;23.364;2023-12-04T02:30:17;95577.63;;;2.76;61.01
20612;BME280;10465;42.686;23.364;2023-12-04T02:32:45;95586.19;;;2.88;60.12
20612;BME280;10465;42.686;23.364;2023-12-04T02:35:13;95556.34;;;2.67;59.91
20612;BME280;10465;42.686;23.364;2023-12-04T02:37:40;95595.28;;;2.86;60.00
20612;BME280;10465;42.686;23.364;2023-12-04T02:40:06;95589.69;;;2.77;59.35
20612;BME280;10465;42.686;23.364;2023-12-04T02:42:32;95591.44;;;2.71;58.93
20612;BME280;10465;42.686;23.364;2023-12-04T02:44:58;95591.50;;;2.77;58.69
20612;BME280;10465;42.686;23.364;2023-12-04T02:47:23;95595.16;;;2.76;58.86
20612;BME280;10465;42.686;23.364;2023-12-04T02:49:49;95596.72;;;2.77;59.25
20612;BME280;10465;42.686;23.364;2023-12-04T02:52:14;95579.84;;;2.67;58.59
20612;BME280;10465;42.686;23.364;2023-12-04T02:54:39;95596.94;;;2.75;59.09
20612;BME280;10465;42.686;23.364;2023-12-04T02:57:05;95594.66;;;2.62;59.43
20612;BME280;10465;42.686;23.364;2023-12-04T02:59:30;95597.03;;;2.63;59.47
20612;BME280;10465;42.686;23.364;2023-12-04T03:01:56;95592.09;;;2.50;59.26
20612;BME280;10465;42.686;23.364;2023-12-04T03:04:21;95585.94;;;2.39;59.16
20612;BME280;10465;42.686;23.364;2023-12-04T03:06:46;95587.97;;;2.37;59.79
20612;BME280;10465;42.686;23.364;2023-12-04T03:09:12;95594.56;;;2.40;59.76
20612;BME280;10465;42.686;23.364;2023-12-04T03:11:41;95577.09;;;2.29;59.44
20612;BME280;10465;42.686;23.364;2023-12-04T03:14:07;95598.66;;;2.36;59.58
20612;BME280;10465;42.686;23.364;2023-12-04T03:16:32;95532.69;;;1.83;59.99
20612;BME280;10465;42.686;23.364;2023-12-04T03:18:58;95592.38;;;2.20;60.46
20612;BME280;10465;42.686;23.364;2023-12-04T03:21:23;95582.22;;;2.07;60.69
20612;BME280;10465;42.686;23.364;2023-12-04T03:23:49;95602.72;;;2.15;60.45
20612;BME280;10465;42.686;23.364;2023-12-04T03:26:14;95567.41;;;1.84;60.77
20612;BME280;10465;42.686;23.364;2023-12-04T03:28:40;95595.94;;;2.02;60.82
20612;BME280;10465;42.686;23.364;2023-12-04T03:31:06;95598.75;;;2.12;61.00
20612;BME280;10465;42.686;23.364;2023-12-04T03:33:31;95611.38;;;2.15;60.67
20612;BME280;10465;42.686;23.364;2023-12-04T03:36:01;95594.78;;;2.10;60.24
20612;BME280;10465;42.686;23.364;2023-12-04T03:38:26;95609.75;;;2.14;60.33
20612;BME280;10465;42.686;23.364;2023-12-04T03:40:52;95610.47;;;2.10;60.52
20612;BME280;10465;42.686;23.364;2023-12-04T03:43:17;95616.63;;;2.04;60.15
20612;BME280;10465;42.686;23.364;2023-12-04T03:45:43;95619.34;;;1.97;60.10
20612;BME280;10465;42.686;23.364;2023-12-04T03:48:09;95616.19;;;1.95;60.01
20612;BME280;10465;42.686;23.364;2023-12-04T03:50:34;95615.28;;;1.89;59.64
20612;BME280;10465;42.686;23.364;2023-12-04T03:53:00;95613.03;;;1.81;60.28
20612;BME280;10465;42.686;23.364;2023-12-04T03:55:25;95611.56;;;1.85;60.16
20612;BME280;10465;42.686;23.364;2023-12-04T03:57:52;95612.25;;;1.81;60.20
20612;BME280;10465;42.686;23.364;2023-12-04T04:00:18;95613.03;;;1.81;59.97
20612;BME280;10465;42.686;23.364;2023-12-04T04:02:43;95612.25;;;1.81;60.02
20612;BME280;10465;42.686;23.364;2023-12-04T04:05:09;95611.59;;;1.73;59.82
20612;BME280;10465;42.686;23.364;2023-12-04T04:07:35;95598.88;;;1.65;59.85
20612;BME280;10465;42.686;23.364;2023-12-04T04:10:00;95616.25;;;1.71;60.07
20612;BME280;10465;42.686;23.364;2023-12-04T04:12:27;95608.63;;;1.70;60.19
20612;BME280;10465;42.686;23.364;2023-12-04T04:14:52;95619.41;;;1.73;60.36
20612;BME280;10465;42.686;23.364;2023-12-04T04:17:17;95624.78;;;1.67;59.91
20612;BME280;10465;42.686;23.364;2023-12-04T04:19:43;95622.25;;;1.72;60.22
20612;BME280;10465;42.686;23.364;2023-12-04T04:22:08;95629.16;;;1.78;59.87
20612;BME280;10465;42.686;23.364;2023-12-04T04:24:34;95639.06;;;1.64;59.66
20612;BME280;10465;42.686;23.364;2023-12-04T04:26:59;95631.81;;;1.66;59.97
20612;BME280;10465;42.686;23.364;2023-12-04T04:29:25;95639.75;;;1.71;60.15
20612;BME280;10465;42.686;23.364;2023-12-04T04:31:50;95628.28;;;1.61;59.91
20612;BME280;10465;42.686;23.364;2023-12-04T04:34:15;95620.56;;;1.66;59.56
20612;BME280;10465;42.686;23.364;2023-12-04T04:36:42;95638.13;;;1.82;60.04
20612;BME280;10465;42.686;23.364;2023-12-04T04:39:09;95639.72;;;1.83;59.57
20612;BME280;10465;42.686;23.364;2023-12-04T04:41:36;95648.75;;;2.04;58.85
20612;BME280;10465;42.686;23.364;2023-12-04T04:44:01;95642.84;;;1.97;58.66
20612;BME280;10465;42.686;23.364;2023-12-04T04:46:27;95653.50;;;2.07;58.58
20612;BME280;10465;42.686;23.364;2023-12-04T04:48:53;95661.19;;;2.14;58.56
20612;BME280;10465;42.686;23.364;2023-12-04T04:51:19;95661.00;;;2.15;57.88
20612;BME280;10465;42.686;23.364;2023-12-04T04:53:44;95637.31;;;1.93;57.63
20612;BME280;10465;42.686;23.364;2023-12-04T04:56:10;95666.81;;;1.94;57.53
20612;BME280;10465;42.686;23.364;2023-12-04T04:58:35;95668.75;;;1.98;57.58
20612;BME280;10465;42.686;23.364;2023-12-04T05:01:01;95671.06;;;1.83;58.27
20612;BME280;10465;42.686;23.364;2023-12-04T05:03:26;95674.56;;;1.89;58.25
20612;BME280;10465;42.686;23.364;2023-12-04T05:05:52;95659.25;;;1.81;57.94
20612;BME280;10465;42.686;23.364;2023-12-04T05:08:17;95654.91;;;1.86;57.89
20612;BME280;10465;42.686;23.364;2023-12-04T05:10:43;95667.97;;;1.86;57.44
20612;BME280;10465;42.686;23.364;2023-12-04T05:13:08;95654.34;;;1.84;57.47
20612;BME280;10465;42.686;23.364;2023-12-04T05:15:34;95676.25;;;1.95;57.65
20612;BME280;10465;42.686;23.364;2023-12-04T05:17:59;95698.38;;;1.92;57.60
20612;BME280;10465;42.686;23.364;2023-12-04T05:20:24;95678.09;;;1.83;57.46
20612;BME280;10465;42.686;23.364;2023-12-04T05:22:50;95679.56;;;1.79;57.42
20612;BME280;10465;42.686;23.364;2023-12-04T05:25:15;95659.59;;;1.72;57.56
20612;BME280;10465;42.686;23.364;2023-12-04T05:27:41;95683.16;;;1.89;57.81
20612;BME280;10465;42.686;23.364;2023-12-04T05:30:07;95684.88;;;1.95;57.65
20612;BME280;10465;42.686;23.364;2023-12-04T05:32:32;95678.06;;;1.94;57.64
20612;BME280;10465;42.686;23.364;2023-12-04T05:34:58;95673.97;;;1.98;57.60
20612;BME280;10465;42.686;23.364;2023-12-04T05:37:23;95683.03;;;2.08;57.40
20612;BME280;10465;42.686;23.364;2023-12-04T05:39:49;95683.84;;;1.96;57.26
20612;BME280;10465;42.686;23.364;2023-12-04T05:42:14;95685.66;;;1.96;57.04
20612;BME280;10465;42.686;23.364;2023-12-04T05:44:39;95689.31;;;1.95;57.36
20612;BME280;10465;42.686;23.364;2023-12-04T05:47:05;95682.28;;;1.95;57.40
20612;BME280;10465;42.686;23.364;2023-12-04T05:49:33;95695.88;;;1.97;57.44
20612;BME280;10465;42.686;23.364;2023-12-04T05:51:59;95692.81;;;1.89;57.42
20612;BME280;10465;42.686;23.364;2023-12-04T05:54:24;95692.13;;;1.93;57.69
20612;BME280;10465;42.686;23.364;2023-12-04T05:56:50;95680.00;;;1.87;57.93
20612;BME280;10465;42.686;23.364;2023-12-04T05:59:15;95682.13;;;1.90;57.74
20612;BME280;10465;42.686;23.364;2023-12-04T06:01:41;95709.97;;;1.96;57.37
20612;BME280;10465;42.686;23.364;2023-12-04T06:04:06;95693.06;;;1.99;57.71
20612;BME280;10465;42.686;23.364;2023-12-04T06:06:31;95699.16;;;2.05;58.17
20612;BME280;10465;42.686;23.364;2023-12-04T06:08:57;95704.25;;;2.11;59.83
20612;BME280;10465;42.686;23.364;2023-12-04T06:11:22;95700.34;;;2.26;60.28
20612;BME280;10465;42.686;23.364;2023-12-04T06:13:48;95705.47;;;2.32;58.41
20612;BME280;10465;42.686;23.364;2023-12-04T06:16:13;95708.88;;;2.33;57.09
20612;BME280;10465;42.686;23.364;2023-12-04T06:18:39;95718.66;;;2.26;56.85
20612;BME280;10465;42.686;23.364;2023-12-04T06:21:04;95709.13;;;2.19;56.85
20612;BME280;10465;42.686;23.364;2023-12-04T06:23:30;95701.50;;;2.18;57.29
20612;BME280;10465;42.686;23.364;2023-12-04T06:25:56;95666.03;;;1.93;57.35
20612;BME280;10465;42.686;23.364;2023-12-04T06:28:22;95686.06;;;2.16;57.24
20612;BME280;10465;42.686;23.364;2023-12-04T06:30:47;95665.31;;;1.98;57.11
20612;BME280;10465;42.686;23.364;2023-12-04T06:33:13;95693.81;;;2.11;57.26
20612;BME280;10465;42.686;23.364;2023-12-04T06:35:40;95719.22;;;2.28;57.01
20612;BME280;10465;42.686;23.364;2023-12-04T06:38:06;95721.59;;;2.29;56.90
20612;BME280;10465;42.686;23.364;2023-12-04T06:40:32;95692.88;;;2.17;56.83
20612;BME280;10465;42.686;23.364;2023-12-04T06:42:58;95730.22;;;2.30;56.73
20612;BME280;10465;42.686;23.364;2023-12-04T06:45:24;95725.84;;;2.07;57.07
20612;BME280;10465;42.686;23.364;2023-12-04T06:47:50;95749.56;;;2.17;57.14
20612;BME280;10465;42.686;23.364;2023-12-04T06:50:16;95743.78;;;2.15;57.61
20612;BME280;10465;42.686;23.364;2023-12-04T06:52:42;95740.25;;;2.09;57.04
20612;BME280;10465;42.686;23.364;2023-12-04T06:55:11;95749.47;;;2.12;57.16
20612;BME280;10465;42.686;23.364;2023-12-04T06:57:37;95747.91;;;1.99;57.62
20612;BME280;10465;42.686;23.364;2023-12-04T07:00:04;95743.56;;;2.05;57.70
20612;BME280;10465;42.686;23.364;2023-12-04T07:02:30;95750.69;;;2.09;57.73
20612;BME280;10465;42.686;23.364;2023-12-04T07:04:56;95737.44;;;1.99;57.38
20612;BME280;10465;42.686;23.364;2023-12-04T07:07:21;95744.16;;;1.95;57.39
20612;BME280;10465;42.686;23.364;2023-12-04T07:09:46;95751.97;;;1.95;56.76
20612;BME280;10465;42.686;23.364;2023-12-04T07:12:13;95753.78;;;1.94;57.54
20612;BME280;10465;42.686;23.364;2023-12-04T07:14:38;95755.16;;;1.97;57.82
20612;BME280;10465;42.686;23.364;2023-12-04T07:17:04;95746.19;;;1.93;57.83
20612;BME280;10465;42.686;23.364;2023-12-04T07:19:30;95740.84;;;2.00;59.51
20612;BME280;10465;42.686;23.364;2023-12-04T07:21:56;95746.50;;;2.08;59.45
20612;BME280;10465;42.686;23.364;2023-12-04T07:24:21;95749.56;;;2.17;57.40
20612;BME280;10465;42.686;23.364;2023-12-04T07:26:47;95749.56;;;2.17;57.24
20612;BME280;10465;42.686;23.364;2023-12-04T07:29:13;95759.19;;;2.28;56.76
20612;BME280;10465;42.686;23.364;2023-12-04T07:31:38;95721.44;;;2.07;56.61
20612;BME280;10465;42.686;23.364;2023-12-04T07:34:04;95761.47;;;2.25;55.90
20612;BME280;10465;42.686;23.364;2023-12-04T07:36:29;95756.16;;;2.19;55.89
20612;BME280;10465;42.686;23.364;2023-12-04T07:38:54;95759.56;;;2.20;56.04
20612;BME280;10465;42.686;23.364;2023-12-04T07:41:20;95762.72;;;2.22;55.65
20612;BME280;10465;42.686;23.364;2023-12-04T07:43:47;95739.47;;;2.09;55.32
20612;BME280;10465;42.686;23.364;2023-12-04T07:46:12;95745.22;;;2.22;55.33
20612;BME280;10465;42.686;23.364;2023-12-04T07:48:39;95765.88;;;2.36;55.54
20612;BME280;10465;42.686;23.364;2023-12-04T07:51:05;95758.47;;;2.44;55.17
20612;BME280;10465;42.686;23.364;2023-12-04T07:53:30;95757.66;;;2.56;55.01
20612;BME280;10465;42.686;23.364;2023-12-04T07:55:57;95736.22;;;2.42;54.89
20612;BME280;10465;42.686;23.364;2023-12-04T07:58:22;95726.44;;;2.37;54.26
20612;BME280;10465;42.686;23.364;2023-12-04T08:00:48;95774.13;;;2.56;53.75
20612;BME280;10465;42.686;23.364;2023-12-04T08:03:13;95742.16;;;2.26;53.94
20612;BME280;10465;42.686;23.364;2023-12-04T08:05:39;95772.25;;;2.40;53.76
20612;BME280;10465;42.686;23.364;2023-12-04T08:08:04;95769.81;;;2.50;53.50
20612;BME280;10465;42.686;23.364;2023-12-04T08:10:30;95784.44;;;2.63;52.73
20612;BME280;10465;42.686;23.364;2023-12-04T08:12:55;95789.31;;;2.71;52.04
20612;BME280;10465;42.686;23.364;2023-12-04T08:15:21;95788.03;;;2.85;52.03
20612;BME280;10465;42.686;23.364;2023-12-04T08:17:46;95787.53;;;3.00;52.05
20612;BME280;10465;42.686;23.364;2023-12-04T08:20:12;95787.44;;;3.12;51.75
20612;BME280;10465;42.686;23.364;2023-12-04T08:22:41;95767.72;;;3.04;50.60
20612;BME280;10465;42.686;23.364;2023-12-04T08:25:09;95769.13;;;3.12;50.46
20612;BME280;10465;42.686;23.364;2023-12-04T08:27:35;95781.31;;;3.35;49.81
20612;BME280;10465;42.686;23.364;2023-12-04T08:30:00;95757.13;;;3.44;49.65
20612;BME280;10465;42.686;23.364;2023-12-04T08:32:25;95760.28;;;3.80;49.16
20612;BME280;10465;42.686;23.364;2023-12-04T08:34:54;95778.72;;;4.24;48.25
20612;BME280;10465;42.686;23.364;2023-12-04T08:37:19;95791.03;;;4.24;48.00
20612;BME280;10465;42.686;23.364;2023-12-04T08:39:45;95784.69;;;4.19;48.35
20612;BME280;10465;42.686;23.364;2023-12-04T08:42:11;95780.41;;;4.13;47.80
20612;BME280;10465;42.686;23.364;2023-12-04T08:44:37;95781.53;;;4.17;47.89
20612;BME280;10465;42.686;23.364;2023-12-04T08:47:03;95777.59;;;4.20;48.89
20612;BME280;10465;42.686;23.364;2023-12-04T08:49:29;95747.78;;;4.04;48.31
20612;BME280;10465;42.686;23.364;2023-12-04T08:51:54;95773.78;;;4.28;48.54
20612;BME280;10465;42.686;23.364;2023-12-04T08:54:20;95784.03;;;4.51;48.02
20612;BME280;10465;42.686;23.364;2023-12-04T08:56:45;95749.78;;;4.58;46.67
20612;BME280;10465;42.686;23.364;2023-12-04T08:59:10;95774.41;;;4.79;45.98
20612;BME280;10465;42.686;23.364;2023-12-04T09:01:37;95762.44;;;4.88;45.04
20612;BME280;10465;42.686;23.364;2023-12-04T09:04:02;95771.75;;;5.01;45.39
20612;BME280;10465;42.686;23.364;2023-12-04T09:06:29;95775.19;;;5.06;44.75
20612;BME280;10465;42.686;23.364;2023-12-04T09:08:54;95762.69;;;5.13;44.79
20612;BME280;10465;42.686;23.364;2023-12-04T09:11:19;95766.00;;;5.04;44.67
20612;BME280;10465;42.686;23.364;2023-12-04T09:13:45;95765.75;;;5.05;45.11
20612;BME280;10465;42.686;23.364;2023-12-04T09:16:10;95753.13;;;5.02;44.77
20612;BME280;10465;42.686;23.364;2023-12-04T09:18:36;95766.34;;;5.12;44.51
20612;BME280;10465;42.686;23.364;2023-12-04T09:21:01;95752.47;;;5.17;44.37
20612;BME280;10465;42.686;23.364;2023-12-04T09:23:27;95756.53;;;5.30;44.07
20612;BME280;10465;42.686;23.364;2023-12-04T09:25:52;95742.84;;;5.23;44.13
20612;BME280;10465;42.686;23.364;2023-12-04T09:28:18;95741.47;;;5.47;43.89
20612;BME280;10465;42.686;23.364;2023-12-04T09:30:43;95717.78;;;5.42;42.19
20612;BME280;10465;42.686;23.364;2023-12-04T09:33:08;95751.94;;;5.79;41.88
20612;BME280;10465;42.686;23.364;2023-12-04T09:35:34;95758.84;;;5.90;42.00
20612;BME280;10465;42.686;23.364;2023-12-04T09:37:59;95746.31;;;6.03;42.02
20612;BME280;10465;42.686;23.364;2023-12-04T09:40:25;95741.06;;;5.98;43.01
20612;BME280;10465;42.686;23.364;2023-12-04T09:42:51;95747.47;;;6.12;42.21
20612;BME280;10465;42.686;23.364;2023-12-04T09:45:18;95758.22;;;6.15;43.15
20612;BME280;10465;42.686;23.364;2023-12-04T09:47:44;95721.88;;;6.02;43.21
20612;BME280;10465;42.686;23.364;2023-12-04T09:50:10;95746.16;;;6.19;42.91
20612;BME280;10465;42.686;23.364;2023-12-04T09:52:36;95731.41;;;6.13;42.85
20612;BME280;10465;42.686;23.364;2023-12-04T09:55:01;95731.16;;;6.15;43.14
20612;BME280;10465;42.686;23.364;2023-12-04T09:57:27;95738.34;;;6.35;42.71
20612;BME280;10465;42.686;23.364;2023-12-04T09:59:53;95728.16;;;6.49;42.05
20612;BME280;10465;42.686;23.364;2023-12-04T10:02:20;95731.09;;;6.67;41.99
20612;BME280;10465;42.686;23.364;2023-12-04T10:04:47;95722.97;;;6.74;42.10
20612;BME280;10465;42.686;23.364;2023-12-04T10:07:12;95729.09;;;6.90;41.27
20612;BME280;10465;42.686;23.364;2023-12-04T10:09:38;95684.28;;;6.75;42.11
20612;BME280;10465;42.686;23.364;2023-12-04T10:12:05;95715.69;;;7.17;42.25
20612;BME280;10465;42.686;23.364;2023-12-04T10:14:40;95720.97;;;7.63;41.02
20612;BME280;10465;42.686;23.364;2023-12-04T10:17:15;95704.63;;;7.86;39.97
20612;BME280;10465;42.686;23.364;2023-12-04T10:19:43;95729.59;;;8.14;40.15
20612;BME280;10465;42.686;23.364;2023-12-04T10:22:09;95708.25;;;8.06;39.97
20612;BME280;10465;42.686;23.364;2023-12-04T10:24:39;95673.47;;;7.93;39.69
20612;BME280;10465;42.686;23.364;2023-12-04T10:27:06;95713.69;;;8.45;39.43
20612;BME280;10465;42.686;23.364;2023-12-04T10:32:11;95692.44;;;8.76;38.16
20612;BME280;10465;42.686;23.364;2023-12-04T10:34:37;95710.69;;;9.16;37.28
20612;BME280;10465;42.686;23.364;2023-12-04T10:37:04;95694.72;;;9.32;36.91
20612;BME280;10465;42.686;23.364;2023-12-04T10:39:30;95678.53;;;9.38;36.66
20612;BME280;10465;42.686;23.364;2023-12-04T10:42:02;95697.91;;;9.63;37.79
20612;BME280;10465;42.686;23.364;2023-12-04T10:44:28;95642.91;;;9.36;36.47
20612;BME280;10465;42.686;23.364;2023-12-04T10:46:56;95686.94;;;9.75;36.72
20612;BME280;10465;42.686;23.364;2023-12-04T10:49:27;95690.13;;;9.77;36.97
20612;BME280;10465;42.686;23.364;2023-12-04T10:51:58;95692.56;;;9.68;36.74
20612;BME280;10465;42.686;23.364;2023-12-04T10:54:27;95661.13;;;9.37;37.23
20612;BME280;10465;42.686;23.364;2023-12-04T10:56:56;95656.19;;;9.26;37.67
20612;BME280;10465;42.686;23.364;2023-12-04T10:59:27;95680.53;;;9.52;37.80
20612;BME280;10465;42.686;23.364;2023-12-04T11:01:57;95692.91;;;9.61;37.75
20612;BME280;10465;42.686;23.364;2023-12-04T11:04:26;95697.28;;;9.71;37.30
20612;BME280;10465;42.686;23.364;2023-12-04T11:06:54;95692.75;;;9.77;37.30
20612;BME280;10465;42.686;23.364;2023-12-04T11:09:24;95687.09;;;9.88;37.62
20612;BME280;10465;42.686;23.364;2023-12-04T11:11:57;95696.84;;;10.17;37.04
20612;BME280;10465;42.686;23.364;2023-12-04T11:14:28;95670.81;;;10.29;36.14
20612;BME280;10465;42.686;23.364;2023-12-04T11:17:02;95672.53;;;10.39;36.55
20612;BME280;10465;42.686;23.364;2023-12-04T11:22:09;95663.50;;;9.92;37.68
20612;BME280;10465;42.686;23.364;2023-12-04T11:24:35;95670.19;;;10.08;37.30
20612;BME280;10465;42.686;23.364;2023-12-04T11:27:04;95636.94;;;9.78;38.36
20612;BME280;10465;42.686;23.364;2023-12-04T11:29:34;95659.59;;;9.89;38.20
20612;BME280;10465;42.686;23.364;2023-12-04T11:32:13;95631.63;;;9.54;37.21
20612;BME280;10465;42.686;23.364;2023-12-04T11:35:12;95641.25;;;9.45;38.50
20612;BME280;10465;42.686;23.364;2023-12-04T11:37:40;95654.25;;;9.65;37.86
20612;BME280;10465;42.686;23.364;2023-12-04T11:40:14;95639.38;;;9.46;38.78
20612;BME280;10465;42.686;23.364;2023-12-04T11:42:46;95647.41;;;9.64;37.96
20612;BME280;10465;42.686;23.364;2023-12-04T11:45:23;95641.59;;;9.33;38.58
20612;BME280;10465;42.686;23.364;2023-12-04T11:47:57;95634.16;;;9.35;39.14
20612;BME280;10465;42.686;23.364;2023-12-04T11:50:28;95624.53;;;9.21;38.62
20612;BME280;10465;42.686;23.364;2023-12-04T11:52:57;95626.66;;;9.19;39.67
20612;BME280;10465;42.686;23.364;2023-12-04T11:55:28;95629.66;;;9.07;39.42
20612;BME280;10465;42.686;23.364;2023-12-04T11:58:00;95629.44;;;8.98;39.71
20612;BME280;10465;42.686;23.364;2023-12-04T12:00:35;95625.91;;;9.13;39.63
20612;BME280;10465;42.686;23.364;2023-12-04T12:03:06;95624.00;;;9.24;39.27
20612;BME280;10465;42.686;23.364;2023-12-04T12:05:33;95572.88;;;8.75;39.53
20612;BME280;10465;42.686;23.364;2023-12-04T12:08:01;95619.38;;;9.05;39.85
20612;BME280;10465;42.686;23.364;2023-12-04T12:10:27;95612.81;;;8.98;39.19
20612;BME280;10465;42.686;23.364;2023-12-04T12:12:53;95608.53;;;9.07;39.32
20612;BME280;10465;42.686;23.364;2023-12-04T12:15:19;95604.38;;;9.30;39.64
20612;BME280;10465;42.686;23.364;2023-12-04T12:17:44;95598.66;;;9.47;38.76
20612;BME280;10465;42.686;23.364;2023-12-04T12:20:12;95594.41;;;9.51;40.41
20612;BME280;10465;42.686;23.364;2023-12-04T12:22:38;95606.47;;;9.33;41.03
20612;BME280;10465;42.686;23.364;2023-12-04T12:25:12;95566.44;;;8.86;40.90
20612;BME280;10465;42.686;23.364;2023-12-04T12:27:39;95605.91;;;8.68;41.93
20612;BME280;10465;42.686;23.364;2023-12-04T12:30:05;95556.25;;;8.25;43.04
20612;BME280;10465;42.686;23.364;2023-12-04T12:32:34;95586.56;;;8.38;43.42
20612;BME280;10465;42.686;23.364;2023-12-04T12:35:00;95541.78;;;8.17;43.95
20612;BME280;10465;42.686;23.364;2023-12-04T12:37:29;95577.81;;;8.48;43.98
20612;BME280;10465;42.686;23.364;2023-12-04T12:39:56;95557.03;;;8.26;43.85
20612;BME280;10465;42.686;23.364;2023-12-04T12:42:27;95579.13;;;8.45;43.41
20612;BME280;10465;42.686;23.364;2023-12-04T12:44:53;95586.56;;;8.38;43.56
20612;BME280;10465;42.686;23.364;2023-12-04T12:47:20;95570.81;;;8.17;43.87
20612;BME280;10465;42.686;23.364;2023-12-04T12:49:46;95576.84;;;8.23;43.63
20612;BME280;10465;42.686;23.364;2023-12-04T12:52:11;95570.03;;;8.17;43.96
20612;BME280;10465;42.686;23.364;2023-12-04T12:54:38;95559.72;;;8.21;44.12
20612;BME280;10465;42.686;23.364;2023-12-04T12:57:05;95576.00;;;8.33;44.46
20612;BME280;10465;42.686;23.364;2023-12-04T12:59:30;95572.16;;;8.15;44.13
20612;BME280;10465;42.686;23.364;2023-12-04T13:01:56;95557.47;;;7.99;44.74